sensor_id;sensor_type;location;lat;lon;timestamp;P1;durP1;ratioP1;P2;durP2;ratioP2
67162;SDS011;54092;53.088;8.850;2024-03-22T00:01:48;21.63;;;11.30;;
67162;SDS011;54092;53.088;8.850;2024-03-22T00:04:15;21.98;;;10.77;;
67162;SDS011;54092;53.088;8.850;2024-03-22T00:06:43;20.13;;;10.63;;
67162;SDS011;54092;53.088;8.850;2024-03-22T00:09:10;19.00;;;10.48;;
67162;SDS011;54092;53.088;8.850;2024-03-22T00:11:36;21.27;;;11.30;;
67162;SDS011;54092;53.088;8.850;2024-03-22T00:14:02;21.25;;;12.27;;
67162;SDS011;54092;53.088;8.850;2024-03-22T00:16:28;20.20;;;10.18;;
67162;SDS011;54092;53.088;8.850;2024-03-22T00:18:54;24.02;;;11.27;;
67162;SDS011;54092;53.088;8.850;2024-03-22T00:21:19;23.63;;;10.30;;
67162;SDS011;54092;53.088;8.850;2024-03-22T00:23:46;22.00;;;11.43;;
67162;SDS011;54092;53.088;8.850;2024-03-22T00:26:11;26.08;;;12.23;;
67162;SDS011;54092;53.088;8.850;2024-03-22T00:28:37;22.15;;;11.80;;
67162;SDS011;54092;53.088;8.850;2024-03-22T00:31:02;22.80;;;11.63;;
67162;SDS011;54092;53.088;8.850;2024-03-22T00:33:28;26.55;;;12.82;;
67162;SDS011;54092;53.088;8.850;2024-03-22T00:35:54;30.52;;;14.27;;
67162;SDS011;54092;53.088;8.850;2024-03-22T00:38:19;25.95;;;12.55;;
67162;SDS011;54092;53.088;8.850;2024-03-22T00:40:44;26.60;;;12.45;;
67162;SDS011;54092;53.088;8.850;2024-03-22T00:43:10;24.83;;;13.38;;
67162;SDS011;54092;53.088;8.850;2024-03-22T00:45:35;25.52;;;12.93;;
67162;SDS011;54092;53.088;8.850;2024-03-22T00:48:01;26.48;;;13.63;;
67162;SDS011;54092;53.088;8.850;2024-03-22T00:50:27;22.67;;;12.05;;
67162;SDS011;54092;53.088;8.850;2024-03-22T00:52:54;30.60;;;13.77;;
67162;SDS011;54092;53.088;8.850;2024-03-22T00:55:23;26.60;;;13.05;;
67162;SDS011;54092;53.088;8.850;2024-03-22T00:57:49;25.00;;;11.15;;
67162;SDS011;54092;53.088;8.850;2024-03-22T01:00:14;27.05;;;13.65;;
67162;SDS011;54092;53.088;8.850;2024-03-22T01:02:41;27.00;;;12.57;;
67162;SDS011;54092;53.088;8.850;2024-03-22T01:05:07;29.67;;;15.18;;
67162;SDS011;54092;53.088;8.850;2024-03-22T01:07:33;29.40;;;13.95;;
67162;SDS011;54092;53.088;8.850;2024-03-22T01:09:58;31.77;;;15.18;;
67162;SDS011;54092;53.088;8.850;2024-03-22T01:12:25;30.38;;;14.38;;
67162;SDS011;54092;53.088;8.850;2024-03-22T01:14:50;31.80;;;15.82;;
67162;SDS011;54092;53.088;8.850;2024-03-22T01:17:16;31.13;;;15.63;;
67162;SDS011;54092;53.088;8.850;2024-03-22T01:19:42;32.20;;;15.38;;
67162;SDS011;54092;53.088;8.850;2024-03-22T01:22:07;32.08;;;15.68;;
67162;SDS011;54092;53.088;8.850;2024-03-22T01:24:33;29.63;;;14.98;;
67162;SDS011;54092;53.088;8.850;2024-03-22T01:26:58;35.75;;;15.73;;
67162;SDS011;54092;53.088;8.850;2024-03-22T01:29:24;32.63;;;16.30;;
67162;SDS011;54092;53.088;8.850;2024-03-22T01:31:49;32.05;;;15.32;;
67162;SDS011;54092;53.088;8.850;2024-03-22T01:34:15;36.25;;;17.75;;
67162;SDS011;54092;53.088;8.850;2024-03-22T01:36:40;32.15;;;15.35;;
67162;SDS011;54092;53.088;8.850;2024-03-22T01:39:06;36.05;;;17.75;;
67162;SDS011;54092;53.088;8.850;2024-03-22T01:41:31;36.28;;;17.63;;
67162;SDS011;54092;53.088;8.850;2024-03-22T01:43:57;36.28;;;16.75;;
67162;SDS011;54092;53.088;8.850;2024-03-22T01:46:23;32.60;;;16.40;;
67162;SDS011;54092;53.088;8.850;2024-03-22T01:48:49;34.47;;;17.35;;
67162;SDS011;54092;53.088;8.850;2024-03-22T01:51:15;34.30;;;16.33;;
67162;SDS011;54092;53.088;8.850;2024-03-22T01:53:41;36.80;;;17.65;;
67162;SDS011;54092;53.088;8.850;2024-03-22T01:56:07;37.30;;;17.38;;
67162;SDS011;54092;53.088;8.850;2024-03-22T01:58:33;35.78;;;17.25;;
67162;SDS011;54092;53.088;8.850;2024-03-22T02:00:58;34.13;;;17.10;;
67162;SDS011;54092;53.088;8.850;2024-03-22T02:03:24;36.10;;;17.70;;
67162;SDS011;54092;53.088;8.850;2024-03-22T02:05:50;37.33;;;18.33;;
67162;SDS011;54092;53.088;8.850;2024-03-22T02:08:15;34.35;;;16.45;;
67162;SDS011;54092;53.088;8.850;2024-03-22T02:10:41;37.35;;;18.40;;
67162;SDS011;54092;53.088;8.850;2024-03-22T02:13:06;39.88;;;17.83;;
67162;SDS011;54092;53.088;8.850;2024-03-22T02:15:32;37.95;;;16.75;;
67162;SDS011;54092;53.088;8.850;2024-03-22T02:17:58;38.40;;;18.77;;
67162;SDS011;54092;53.088;8.850;2024-03-22T02:20:23;37.53;;;18.10;;
67162;SDS011;54092;53.088;8.850;2024-03-22T02:22:49;35.92;;;17.38;;
67162;SDS011;54092;53.088;8.850;2024-03-22T02:25:14;43.45;;;19.35;;
67162;SDS011;54092;53.088;8.850;2024-03-22T02:27:40;40.42;;;18.50;;
67162;SDS011;54092;53.088;8.850;2024-03-22T02:30:06;37.55;;;18.15;;
67162;SDS011;54092;53.088;8.850;2024-03-22T02:32:32;38.38;;;19.02;;
67162;SDS011;54092;53.088;8.850;2024-03-22T02:34:58;39.63;;;19.15;;
67162;SDS011;54092;53.088;8.850;2024-03-22T02:37:23;41.53;;;18.58;;
67162;SDS011;54092;53.088;8.850;2024-03-22T02:39:49;39.47;;;19.02;;
67162;SDS011;54092;53.088;8.850;2024-03-22T02:42:14;38.33;;;18.80;;
67162;SDS011;54092;53.088;8.850;2024-03-22T02:44:40;42.13;;;19.27;;
67162;SDS011;54092;53.088;8.850;2024-03-22T02:47:10;40.83;;;18.65;;
67162;SDS011;54092;53.088;8.850;2024-03-22T02:49:38;40.47;;;18.95;;
67162;SDS011;54092;53.088;8.850;2024-03-22T02:52:03;40.00;;;18.15;;
67162;SDS011;54092;53.088;8.850;2024-03-22T02:54:29;40.70;;;19.45;;
67162;SDS011;54092;53.088;8.850;2024-03-22T02:56:55;40.58;;;18.38;;
67162;SDS011;54092;53.088;8.850;2024-03-22T02:59:20;42.50;;;19.42;;
67162;SDS011;54092;53.088;8.850;2024-03-22T03:01:46;44.58;;;19.52;;
67162;SDS011;54092;53.088;8.850;2024-03-22T03:04:11;40.88;;;19.52;;
67162;SDS011;54092;53.088;8.850;2024-03-22T03:06:37;41.38;;;20.33;;
67162;SDS011;54092;53.088;8.850;2024-03-22T03:09:02;41.25;;;19.30;;
67162;SDS011;54092;53.088;8.850;2024-03-22T03:11:30;45.92;;;21.05;;
67162;SDS011;54092;53.088;8.850;2024-03-22T03:13:56;39.70;;;18.90;;
67162;SDS011;54092;53.088;8.850;2024-03-22T03:16:21;44.80;;;20.83;;
67162;SDS011;54092;53.088;8.850;2024-03-22T03:18:47;42.08;;;19.77;;
67162;SDS011;54092;53.088;8.850;2024-03-22T03:21:12;42.42;;;19.58;;
67162;SDS011;54092;53.088;8.850;2024-03-22T03:23:38;47.13;;;20.85;;
67162;SDS011;54092;53.088;8.850;2024-03-22T03:26:03;46.30;;;20.92;;
67162;SDS011;54092;53.088;8.850;2024-03-22T03:28:29;44.33;;;19.92;;
67162;SDS011;54092;53.088;8.850;2024-03-22T03:30:54;41.25;;;20.38;;
67162;SDS011;54092;53.088;8.850;2024-03-22T03:33:20;45.97;;;19.58;;
67162;SDS011;54092;53.088;8.850;2024-03-22T03:35:46;48.85;;;20.83;;
67162;SDS011;54092;53.088;8.850;2024-03-22T03:38:11;50.65;;;21.58;;
67162;SDS011;54092;53.088;8.850;2024-03-22T03:40:37;45.00;;;21.38;;
67162;SDS011;54092;53.088;8.850;2024-03-22T03:43:03;47.13;;;21.23;;
67162;SDS011;54092;53.088;8.850;2024-03-22T03:45:28;47.05;;;21.50;;
67162;SDS011;54092;53.088;8.850;2024-03-22T03:47:54;48.83;;;21.52;;
67162;SDS011;54092;53.088;8.850;2024-03-22T03:50:19;46.08;;;20.50;;
67162;SDS011;54092;53.088;8.850;2024-03-22T03:52:45;49.10;;;22.08;;
67162;SDS011;54092;53.088;8.850;2024-03-22T03:55:10;42.58;;;19.77;;
67162;SDS011;54092;53.088;8.850;2024-03-22T03:57:35;46.15;;;21.10;;
67162;SDS011;54092;53.088;8.850;2024-03-22T04:00:01;50.10;;;21.80;;
67162;SDS011;54092;53.088;8.850;2024-03-22T04:02:27;41.50;;;18.80;;
67162;SDS011;54092;53.088;8.850;2024-03-22T04:04:53;46.63;;;20.75;;
67162;SDS011;54092;53.088;8.850;2024-03-22T04:07:19;47.78;;;21.88;;
67162;SDS011;54092;53.088;8.850;2024-03-22T04:09:45;48.03;;;21.35;;
67162;SDS011;54092;53.088;8.850;2024-03-22T04:12:11;41.58;;;19.00;;
67162;SDS011;54092;53.088;8.850;2024-03-22T04:14:37;51.92;;;21.60;;
67162;SDS011;54092;53.088;8.850;2024-03-22T04:17:02;46.47;;;21.50;;
67162;SDS011;54092;53.088;8.850;2024-03-22T04:19:28;48.30;;;21.52;;
67162;SDS011;54092;53.088;8.850;2024-03-22T04:21:53;49.13;;;21.75;;
67162;SDS011;54092;53.088;8.850;2024-03-22T04:24:19;44.67;;;21.98;;
67162;SDS011;54092;53.088;8.850;2024-03-22T04:26:44;50.30;;;22.95;;
67162;SDS011;54092;53.088;8.850;2024-03-22T04:29:10;41.47;;;20.30;;
67162;SDS011;54092;53.088;8.850;2024-03-22T04:31:35;46.75;;;21.38;;
67162;SDS011;54092;53.088;8.850;2024-03-22T04:34:01;45.63;;;19.85;;
67162;SDS011;54092;53.088;8.850;2024-03-22T04:36:27;42.20;;;20.30;;
67162;SDS011;54092;53.088;8.850;2024-03-22T04:38:53;47.42;;;21.60;;
67162;SDS011;54092;53.088;8.850;2024-03-22T04:41:18;43.67;;;21.23;;
67162;SDS011;54092;53.088;8.850;2024-03-22T04:43:44;49.10;;;21.42;;
67162;SDS011;54092;53.088;8.850;2024-03-22T04:46:09;44.22;;;19.25;;
67162;SDS011;54092;53.088;8.850;2024-03-22T04:48:35;53.70;;;22.65;;
67162;SDS011;54092;53.088;8.850;2024-03-22T04:51:00;47.00;;;22.45;;
67162;SDS011;54092;53.088;8.850;2024-03-22T04:53:26;43.85;;;20.05;;
67162;SDS011;54092;53.088;8.850;2024-03-22T04:55:52;54.42;;;23.33;;
67162;SDS011;54092;53.088;8.850;2024-03-22T04:58:18;44.28;;;21.27;;
67162;SDS011;54092;53.088;8.850;2024-03-22T05:00:46;51.05;;;20.52;;
67162;SDS011;54092;53.088;8.850;2024-03-22T05:03:12;49.88;;;22.65;;
67162;SDS011;54092;53.088;8.850;2024-03-22T05:05:38;38.70;;;17.77;;
67162;SDS011;54092;53.088;8.850;2024-03-22T05:08:04;46.63;;;21.05;;
67162;SDS011;54092;53.088;8.850;2024-03-22T05:10:31;42.47;;;20.90;;
67162;SDS011;54092;53.088;8.850;2024-03-22T05:12:56;50.75;;;22.52;;
67162;SDS011;54092;53.088;8.850;2024-03-22T05:15:22;44.38;;;21.27;;
67162;SDS011;54092;53.088;8.850;2024-03-22T05:17:50;48.03;;;22.40;;
67162;SDS011;54092;53.088;8.850;2024-03-22T05:20:16;47.28;;;20.83;;
67162;SDS011;54092;53.088;8.850;2024-03-22T05:22:42;50.00;;;23.15;;
67162;SDS011;54092;53.088;8.850;2024-03-22T05:25:08;53.83;;;22.85;;
67162;SDS011;54092;53.088;8.850;2024-03-22T05:27:34;47.13;;;22.58;;
67162;SDS011;54092;53.088;8.850;2024-03-22T05:29:59;50.40;;;20.60;;
67162;SDS011;54092;53.088;8.850;2024-03-22T05:32:25;51.25;;;22.27;;
67162;SDS011;54092;53.088;8.850;2024-03-22T05:34:51;49.05;;;21.88;;
67162;SDS011;54092;53.088;8.850;2024-03-22T05:37:18;41.95;;;19.70;;
67162;SDS011;54092;53.088;8.850;2024-03-22T05:39:43;47.08;;;20.88;;
67162;SDS011;54092;53.088;8.850;2024-03-22T05:42:09;44.65;;;20.15;;
67162;SDS011;54092;53.088;8.850;2024-03-22T05:44:34;42.38;;;20.98;;
67162;SDS011;54092;53.088;8.850;2024-03-22T05:47:00;44.45;;;21.58;;
67162;SDS011;54092;53.088;8.850;2024-03-22T05:49:25;48.88;;;22.08;;
67162;SDS011;54092;53.088;8.850;2024-03-22T05:51:51;51.00;;;22.15;;
67162;SDS011;54092;53.088;8.850;2024-03-22T05:54:17;49.10;;;21.98;;
67162;SDS011;54092;53.088;8.850;2024-03-22T05:56:42;45.45;;;22.42;;
67162;SDS011;54092;53.088;8.850;2024-03-22T05:59:09;49.67;;;23.63;;
67162;SDS011;54092;53.088;8.850;2024-03-22T06:01:35;47.13;;;21.67;;
67162;SDS011;54092;53.088;8.850;2024-03-22T06:04:00;51.63;;;22.88;;
67162;SDS011;54092;53.088;8.850;2024-03-22T06:06:26;50.78;;;21.67;;
67162;SDS011;54092;53.088;8.850;2024-03-22T06:08:52;50.00;;;22.60;;
67162;SDS011;54092;53.088;8.850;2024-03-22T06:11:19;51.85;;;23.70;;
67162;SDS011;54092;53.088;8.850;2024-03-22T06:13:44;52.22;;;21.60;;
67162;SDS011;54092;53.088;8.850;2024-03-22T06:16:10;48.85;;;23.55;;
67162;SDS011;54092;53.088;8.850;2024-03-22T06:18:36;45.42;;;21.38;;
67162;SDS011;54092;53.088;8.850;2024-03-22T06:21:02;53.90;;;22.55;;
67162;SDS011;54092;53.088;8.850;2024-03-22T06:23:28;48.95;;;22.02;;
67162;SDS011;54092;53.088;8.850;2024-03-22T06:25:54;51.60;;;23.35;;
67162;SDS011;54092;53.088;8.850;2024-03-22T06:28:20;49.97;;;23.50;;
67162;SDS011;54092;53.088;8.850;2024-03-22T06:30:46;49.38;;;22.20;;
67162;SDS011;54092;53.088;8.850;2024-03-22T06:33:12;50.05;;;22.30;;
67162;SDS011;54092;53.088;8.850;2024-03-22T06:35:37;46.50;;;21.70;;
67162;SDS011;54092;53.088;8.850;2024-03-22T06:38:03;49.83;;;22.77;;
67162;SDS011;54092;53.088;8.850;2024-03-22T06:40:29;58.13;;;24.73;;
67162;SDS011;54092;53.088;8.850;2024-03-22T06:42:55;50.90;;;22.17;;
67162;SDS011;54092;53.088;8.850;2024-03-22T06:45:20;57.83;;;23.65;;
67162;SDS011;54092;53.088;8.850;2024-03-22T06:47:46;51.88;;;22.60;;
67162;SDS011;54092;53.088;8.850;2024-03-22T06:50:12;54.97;;;23.58;;
67162;SDS011;54092;53.088;8.850;2024-03-22T06:52:38;52.20;;;22.83;;
67162;SDS011;54092;53.088;8.850;2024-03-22T06:55:03;54.60;;;23.10;;
67162;SDS011;54092;53.088;8.850;2024-03-22T06:57:29;49.08;;;21.85;;
67162;SDS011;54092;53.088;8.850;2024-03-22T06:59:55;54.95;;;23.55;;
67162;SDS011;54092;53.088;8.850;2024-03-22T07:02:21;54.63;;;21.98;;
67162;SDS011;54092;53.088;8.850;2024-03-22T07:04:46;59.67;;;23.25;;
67162;SDS011;54092;53.088;8.850;2024-03-22T07:07:12;53.72;;;23.02;;
67162;SDS011;54092;53.088;8.850;2024-03-22T07:09:37;57.28;;;23.23;;
67162;SDS011;54092;53.088;8.850;2024-03-22T07:12:03;57.42;;;24.83;;
67162;SDS011;54092;53.088;8.850;2024-03-22T07:14:29;59.35;;;25.40;;
67162;SDS011;54092;53.088;8.850;2024-03-22T07:16:54;61.60;;;24.73;;
67162;SDS011;54092;53.088;8.850;2024-03-22T07:19:20;61.45;;;24.27;;
67162;SDS011;54092;53.088;8.850;2024-03-22T07:21:47;57.92;;;24.13;;
67162;SDS011;54092;53.088;8.850;2024-03-22T07:24:12;63.00;;;24.20;;
67162;SDS011;54092;53.088;8.850;2024-03-22T07:26:38;65.10;;;26.95;;
67162;SDS011;54092;53.088;8.850;2024-03-22T07:29:03;67.38;;;26.38;;
67162;SDS011;54092;53.088;8.850;2024-03-22T07:31:29;66.65;;;25.55;;
67162;SDS011;54092;53.088;8.850;2024-03-22T07:33:55;62.00;;;25.52;;
67162;SDS011;54092;53.088;8.850;2024-03-22T07:36:21;74.63;;;27.52;;
67162;SDS011;54092;53.088;8.850;2024-03-22T07:38:46;67.10;;;25.98;;
67162;SDS011;54092;53.088;8.850;2024-03-22T07:41:13;71.78;;;27.67;;
67162;SDS011;54092;53.088;8.850;2024-03-22T07:43:39;68.00;;;26.75;;
67162;SDS011;54092;53.088;8.850;2024-03-22T07:46:05;61.03;;;22.60;;
67162;SDS011;54092;53.088;8.850;2024-03-22T07:48:30;69.03;;;25.95;;
67162;SDS011;54092;53.088;8.850;2024-03-22T07:50:59;71.88;;;26.20;;
67162;SDS011;54092;53.088;8.850;2024-03-22T07:53:26;69.80;;;26.63;;
67162;SDS011;54092;53.088;8.850;2024-03-22T07:55:51;71.85;;;26.60;;
67162;SDS011;54092;53.088;8.850;2024-03-22T07:58:17;65.85;;;26.70;;
67162;SDS011;54092;53.088;8.850;2024-03-22T08:00:43;67.32;;;26.60;;
67162;SDS011;54092;53.088;8.850;2024-03-22T08:03:09;78.13;;;28.63;;
67162;SDS011;54092;53.088;8.850;2024-03-22T08:05:40;72.25;;;27.73;;
67162;SDS011;54092;53.088;8.850;2024-03-22T08:08:05;65.03;;;26.00;;
67162;SDS011;54092;53.088;8.850;2024-03-22T08:10:31;75.88;;;28.27;;
67162;SDS011;54092;53.088;8.850;2024-03-22T08:12:56;71.15;;;27.08;;
67162;SDS011;54092;53.088;8.850;2024-03-22T08:15:22;74.50;;;27.45;;
67162;SDS011;54092;53.088;8.850;2024-03-22T08:17:48;71.18;;;26.67;;
67162;SDS011;54092;53.088;8.850;2024-03-22T08:20:13;75.95;;;28.67;;
67162;SDS011;54092;53.088;8.850;2024-03-22T08:22:39;72.53;;;28.33;;
67162;SDS011;54092;53.088;8.850;2024-03-22T08:25:04;72.93;;;28.50;;
67162;SDS011;54092;53.088;8.850;2024-03-22T08:27:32;67.00;;;26.45;;
67162;SDS011;54092;53.088;8.850;2024-03-22T08:29:58;72.90;;;28.05;;
67162;SDS011;54092;53.088;8.850;2024-03-22T08:32:24;75.38;;;28.63;;
67162;SDS011;54092;53.088;8.850;2024-03-22T08:34:49;70.97;;;28.27;;
67162;SDS011;54092;53.088;8.850;2024-03-22T08:37:15;70.47;;;27.48;;
67162;SDS011;54092;53.088;8.850;2024-03-22T08:39:40;76.70;;;28.73;;
67162;SDS011;54092;53.088;8.850;2024-03-22T08:42:06;62.30;;;23.48;;
67162;SDS011;54092;53.088;8.850;2024-03-22T08:44:31;58.50;;;25.30;;
67162;SDS011;54092;53.088;8.850;2024-03-22T08:46:57;67.30;;;26.05;;
67162;SDS011;54092;53.088;8.850;2024-03-22T08:49:23;66.28;;;25.05;;
67162;SDS011;54092;53.088;8.850;2024-03-22T08:51:49;60.67;;;26.45;;
67162;SDS011;54092;53.088;8.850;2024-03-22T08:54:14;64.60;;;27.33;;
67162;SDS011;54092;53.088;8.850;2024-03-22T08:56:40;56.58;;;23.67;;
67162;SDS011;54092;53.088;8.850;2024-03-22T08:59:05;63.30;;;25.65;;
67162;SDS011;54092;53.088;8.850;2024-03-22T09:01:31;54.25;;;23.17;;
67162;SDS011;54092;53.088;8.850;2024-03-22T09:03:57;48.00;;;22.10;;
67162;SDS011;54092;53.088;8.850;2024-03-22T09:06:23;59.45;;;25.13;;
67162;SDS011;54092;53.088;8.850;2024-03-22T09:08:48;58.75;;;25.10;;
67162;SDS011;54092;53.088;8.850;2024-03-22T09:11:14;58.75;;;23.73;;
67162;SDS011;54092;53.088;8.850;2024-03-22T09:13:39;56.97;;;23.63;;
67162;SDS011;54092;53.088;8.850;2024-03-22T09:16:04;50.25;;;22.15;;
67162;SDS011;54092;53.088;8.850;2024-03-22T09:18:30;53.33;;;22.63;;
67162;SDS011;54092;53.088;8.850;2024-03-22T09:20:56;51.65;;;22.65;;
67162;SDS011;54092;53.088;8.850;2024-03-22T09:23:21;56.45;;;24.17;;
67162;SDS011;54092;53.088;8.850;2024-03-22T09:25:47;42.67;;;16.67;;
67162;SDS011;54092;53.088;8.850;2024-03-22T09:28:13;48.28;;;21.98;;
67162;SDS011;54092;53.088;8.850;2024-03-22T09:30:42;48.97;;;21.80;;
67162;SDS011;54092;53.088;8.850;2024-03-22T09:33:08;45.03;;;20.65;;
67162;SDS011;54092;53.088;8.850;2024-03-22T09:35:34;48.33;;;21.08;;
67162;SDS011;54092;53.088;8.850;2024-03-22T09:37:59;48.33;;;21.85;;
67162;SDS011;54092;53.088;8.850;2024-03-22T09:40:25;48.72;;;21.08;;
67162;SDS011;54092;53.088;8.850;2024-03-22T09:42:50;44.53;;;20.50;;
67162;SDS011;54092;53.088;8.850;2024-03-22T09:45:18;45.53;;;18.88;;
67162;SDS011;54092;53.088;8.850;2024-03-22T09:47:45;37.60;;;18.13;;
67162;SDS011;54092;53.088;8.850;2024-03-22T09:50:13;44.63;;;18.67;;
67162;SDS011;54092;53.088;8.850;2024-03-22T09:52:39;41.90;;;18.77;;
67162;SDS011;54092;53.088;8.850;2024-03-22T09:55:07;42.10;;;17.60;;
67162;SDS011;54092;53.088;8.850;2024-03-22T09:57:34;41.97;;;18.00;;
67162;SDS011;54092;53.088;8.850;2024-03-22T10:00:05;43.70;;;19.83;;
67162;SDS011;54092;53.088;8.850;2024-03-22T10:02:32;40.30;;;17.98;;
67162;SDS011;54092;53.088;8.850;2024-03-22T10:05:00;45.45;;;20.10;;
67162;SDS011;54092;53.088;8.850;2024-03-22T10:07:27;42.20;;;17.20;;
67162;SDS011;54092;53.088;8.850;2024-03-22T10:09:57;41.17;;;16.80;;
67162;SDS011;54092;53.088;8.850;2024-03-22T10:12:24;37.83;;;17.17;;
67162;SDS011;54092;53.088;8.850;2024-03-22T10:14:53;33.15;;;14.88;;
67162;SDS011;54092;53.088;8.850;2024-03-22T10:17:19;36.67;;;16.67;;
67162;SDS011;54092;53.088;8.850;2024-03-22T10:19:47;40.17;;;18.38;;
67162;SDS011;54092;53.088;8.850;2024-03-22T10:22:15;38.47;;;17.45;;
67162;SDS011;54092;53.088;8.850;2024-03-22T10:24:42;42.10;;;17.73;;
67162;SDS011;54092;53.088;8.850;2024-03-22T10:27:08;40.00;;;18.45;;
67162;SDS011;54092;53.088;8.850;2024-03-22T10:29:35;35.38;;;16.55;;
67162;SDS011;54092;53.088;8.850;2024-03-22T10:32:01;38.53;;;16.73;;
67162;SDS011;54092;53.088;8.850;2024-03-22T10:34:27;39.90;;;17.38;;
67162;SDS011;54092;53.088;8.850;2024-03-22T10:36:53;27.48;;;12.93;;
67162;SDS011;54092;53.088;8.850;2024-03-22T10:39:22;27.60;;;10.30;;
67162;SDS011;54092;53.088;8.850;2024-03-22T10:41:49;32.33;;;14.30;;
67162;SDS011;54092;53.088;8.850;2024-03-22T10:44:15;25.75;;;11.57;;
67162;SDS011;54092;53.088;8.850;2024-03-22T10:46:45;28.13;;;14.18;;
67162;SDS011;54092;53.088;8.850;2024-03-22T10:49:16;26.27;;;12.63;;
67162;SDS011;54092;53.088;8.850;2024-03-22T10:51:52;26.88;;;11.90;;
67162;SDS011;54092;53.088;8.850;2024-03-22T10:54:24;23.63;;;11.55;;
67162;SDS011;54092;53.088;8.850;2024-03-22T10:56:52;20.98;;;10.10;;
67162;SDS011;54092;53.088;8.850;2024-03-22T10:59:19;26.13;;;11.35;;
67162;SDS011;54092;53.088;8.850;2024-03-22T11:01:46;21.95;;;11.52;;
67162;SDS011;54092;53.088;8.850;2024-03-22T11:04:12;23.08;;;10.80;;
67162;SDS011;54092;53.088;8.850;2024-03-22T11:06:38;22.08;;;11.68;;
67162;SDS011;54092;53.088;8.850;2024-03-22T11:09:04;21.48;;;10.23;;
67162;SDS011;54092;53.088;8.850;2024-03-22T11:11:29;23.60;;;11.23;;
67162;SDS011;54092;53.088;8.850;2024-03-22T11:13:56;24.75;;;11.55;;
67162;SDS011;54092;53.088;8.850;2024-03-22T11:16:22;19.77;;;9.70;;
67162;SDS011;54092;53.088;8.850;2024-03-22T11:18:48;29.08;;;12.27;;
67162;SDS011;54092;53.088;8.850;2024-03-22T11:21:17;26.63;;;11.02;;
67162;SDS011;54092;53.088;8.850;2024-03-22T11:23:46;25.08;;;11.13;;
67162;SDS011;54092;53.088;8.850;2024-03-22T11:26:12;23.70;;;11.57;;
67162;SDS011;54092;53.088;8.850;2024-03-22T11:28:41;27.38;;;12.75;;
67162;SDS011;54092;53.088;8.850;2024-03-22T11:31:07;22.15;;;10.73;;
67162;SDS011;54092;53.088;8.850;2024-03-22T11:33:33;23.88;;;11.30;;
67162;SDS011;54092;53.088;8.850;2024-03-22T11:35:59;19.95;;;9.65;;
67162;SDS011;54092;53.088;8.850;2024-03-22T11:38:25;22.23;;;10.18;;
67162;SDS011;54092;53.088;8.850;2024-03-22T11:40:55;23.63;;;11.40;;
67162;SDS011;54092;53.088;8.850;2024-03-22T11:43:24;23.75;;;11.38;;
67162;SDS011;54092;53.088;8.850;2024-03-22T11:45:52;23.55;;;11.70;;
67162;SDS011;54092;53.088;8.850;2024-03-22T11:48:18;23.00;;;11.43;;
67162;SDS011;54092;53.088;8.850;2024-03-22T11:50:45;20.23;;;9.98;;
67162;SDS011;54092;53.088;8.850;2024-03-22T11:53:11;29.05;;;12.15;;
67162;SDS011;54092;53.088;8.850;2024-03-22T11:55:36;20.63;;;10.30;;
67162;SDS011;54092;53.088;8.850;2024-03-22T11:58:02;22.88;;;10.95;;
67162;SDS011;54092;53.088;8.850;2024-03-22T12:00:27;23.17;;;11.18;;
67162;SDS011;54092;53.088;8.850;2024-03-22T12:02:53;19.65;;;10.07;;
67162;SDS011;54092;53.088;8.850;2024-03-22T12:05:19;21.52;;;10.88;;
67162;SDS011;54092;53.088;8.850;2024-03-22T12:07:45;20.05;;;10.82;;
67162;SDS011;54092;53.088;8.850;2024-03-22T12:10:11;17.45;;;9.18;;
67162;SDS011;54092;53.088;8.850;2024-03-22T12:12:37;23.02;;;11.48;;
67162;SDS011;54092;53.088;8.850;2024-03-22T12:15:03;37.45;;;18.17;;
67162;SDS011;54092;53.088;8.850;2024-03-22T12:17:29;50.50;;;22.48;;
67162;SDS011;54092;53.088;8.850;2024-03-22T12:19:55;53.92;;;24.00;;
67162;SDS011;54092;53.088;8.850;2024-03-22T12:22:21;60.08;;;28.15;;
67162;SDS011;54092;53.088;8.850;2024-03-22T12:24:47;61.33;;;29.35;;
67162;SDS011;54092;53.088;8.850;2024-03-22T12:27:13;49.28;;;24.13;;
67162;SDS011;54092;53.088;8.850;2024-03-22T12:29:38;39.22;;;18.60;;
67162;SDS011;54092;53.088;8.850;2024-03-22T12:32:04;35.58;;;17.23;;
67162;SDS011;54092;53.088;8.850;2024-03-22T12:34:30;28.77;;;13.48;;
67162;SDS011;54092;53.088;8.850;2024-03-22T12:36:57;21.38;;;10.48;;
67162;SDS011;54092;53.088;8.850;2024-03-22T12:39:23;20.25;;;10.00;;
67162;SDS011;54092;53.088;8.850;2024-03-22T12:41:49;16.45;;;8.35;;
67162;SDS011;54092;53.088;8.850;2024-03-22T12:44:14;21.27;;;9.20;;
67162;SDS011;54092;53.088;8.850;2024-03-22T12:46:40;11.20;;;5.68;;
67162;SDS011;54092;53.088;8.850;2024-03-22T12:49:10;17.17;;;8.75;;
67162;SDS011;54092;53.088;8.850;2024-03-22T12:51:36;14.20;;;7.82;;
67162;SDS011;54092;53.088;8.850;2024-03-22T12:54:02;14.35;;;7.85;;
67162;SDS011;54092;53.088;8.850;2024-03-22T12:56:28;17.50;;;7.65;;
67162;SDS011;54092;53.088;8.850;2024-03-22T12:58:54;16.58;;;7.47;;
67162;SDS011;54092;53.088;8.850;2024-03-22T13:01:19;12.80;;;6.40;;
67162;SDS011;54092;53.088;8.850;2024-03-22T13:03:45;11.68;;;6.28;;
67162;SDS011;54092;53.088;8.850;2024-03-22T13:06:11;12.38;;;6.38;;
67162;SDS011;54092;53.088;8.850;2024-03-22T13:08:37;11.77;;;7.22;;
67162;SDS011;54092;53.088;8.850;2024-03-22T13:11:03;11.40;;;6.50;;
67162;SDS011;54092;53.088;8.850;2024-03-22T13:13:29;12.90;;;6.88;;
67162;SDS011;54092;53.088;8.850;2024-03-22T13:15:58;12.60;;;6.70;;
67162;SDS011;54092;53.088;8.850;2024-03-22T13:18:23;12.47;;;6.90;;
67162;SDS011;54092;53.088;8.850;2024-03-22T13:20:49;11.27;;;5.97;;
67162;SDS011;54092;53.088;8.850;2024-03-22T13:23:14;11.18;;;5.90;;
67162;SDS011;54092;53.088;8.850;2024-03-22T13:25:40;10.63;;;5.68;;
67162;SDS011;54092;53.088;8.850;2024-03-22T13:28:05;11.40;;;5.82;;
67162;SDS011;54092;53.088;8.850;2024-03-22T13:30:31;10.48;;;5.75;;
67162;SDS011;54092;53.088;8.850;2024-03-22T13:32:57;9.98;;;5.57;;
67162;SDS011;54092;53.088;8.850;2024-03-22T13:35:22;10.48;;;5.38;;
67162;SDS011;54092;53.088;8.850;2024-03-22T13:37:48;11.05;;;6.07;;
67162;SDS011;54092;53.088;8.850;2024-03-22T13:40:13;11.80;;;5.40;;
67162;SDS011;54092;53.088;8.850;2024-03-22T13:42:40;11.55;;;6.00;;
67162;SDS011;54092;53.088;8.850;2024-03-22T13:45:05;9.70;;;5.10;;
67162;SDS011;54092;53.088;8.850;2024-03-22T13:47:31;9.40;;;5.68;;
67162;SDS011;54092;53.088;8.850;2024-03-22T13:49:56;11.75;;;5.30;;
67162;SDS011;54092;53.088;8.850;2024-03-22T13:52:22;9.80;;;5.63;;
67162;SDS011;54092;53.088;8.850;2024-03-22T13:54:48;10.05;;;5.15;;
67162;SDS011;54092;53.088;8.850;2024-03-22T13:57:15;9.77;;;4.90;;
67162;SDS011;54092;53.088;8.850;2024-03-22T13:59:40;8.82;;;5.00;;
67162;SDS011;54092;53.088;8.850;2024-03-22T14:02:06;12.43;;;4.95;;
67162;SDS011;54092;53.088;8.850;2024-03-22T14:04:32;7.05;;;4.07;;
67162;SDS011;54092;53.088;8.850;2024-03-22T14:06:58;8.77;;;4.63;;
67162;SDS011;54092;53.088;8.850;2024-03-22T14:09:23;9.35;;;4.50;;
67162;SDS011;54092;53.088;8.850;2024-03-22T14:11:51;8.40;;;4.18;;
67162;SDS011;54092;53.088;8.850;2024-03-22T14:14:16;9.13;;;4.28;;
67162;SDS011;54092;53.088;8.850;2024-03-22T14:16:42;7.32;;;4.68;;